createdAt,value
2019-03-11T00:01:47.580Z,3.40
2019-03-11T00:04:19.274Z,3.40
2019-03-11T00:06:50.934Z,3.30
2019-03-11T00:09:21.962Z,3.30
2019-03-11T00:11:52.854Z,3.30
2019-03-11T00:14:23.907Z,3.30
2019-03-11T00:16:54.775Z,3.30
2019-03-11T00:19:25.795Z,3.30
2019-03-11T00:21:56.678Z,3.30
2019-03-11T00:24:27.590Z,3.30
2019-03-11T00:26:58.433Z,3.30
2019-03-11T00:29:29.343Z,3.30
2019-03-11T00:32:00.244Z,3.20
2019-03-11T00:34:31.175Z,3.20
2019-03-11T00:37:02.151Z,3.20
2019-03-11T00:39:33.066Z,3.20
2019-03-11T00:42:04.984Z,3.10
2019-03-11T00:44:35.896Z,3.10
2019-03-11T00:47:06.802Z,3.10
2019-03-11T00:49:37.806Z,3.00
2019-03-11T00:52:08.806Z,3.00
2019-03-11T00:54:39.807Z,2.90
2019-03-11T00:57:10.764Z,2.90
2019-03-11T00:59:41.845Z,2.90
2019-03-11T01:02:12.715Z,2.90
2019-03-11T01:04:43.643Z,2.80
2019-03-11T01:07:14.557Z,2.90
2019-03-11T01:09:45.567Z,2.90
2019-03-11T01:12:19.749Z,2.80
2019-03-11T01:14:50.754Z,2.80
2019-03-11T01:17:21.640Z,2.80
2019-03-11T01:19:52.606Z,2.80
2019-03-11T01:22:23.436Z,2.80
2019-03-11T01:24:54.376Z,2.80
2019-03-11T01:27:25.235Z,2.80
2019-03-11T01:29:56.141Z,2.80
2019-03-11T01:32:27.110Z,2.80
2019-03-11T01:34:59.235Z,2.80
2019-03-11T01:37:30.146Z,2.80
2019-03-11T01:40:01.180Z,2.80
2019-03-11T01:42:32.054Z,2.70
2019-03-11T01:45:03.070Z,2.70
2019-03-11T01:47:35.080Z,2.70
2019-03-11T01:50:06.670Z,2.70
2019-03-11T01:52:38.751Z,2.60
2019-03-11T01:55:10.306Z,2.60
2019-03-11T01:57:41.252Z,2.60
2019-03-11T02:00:14.161Z,2.60
2019-03-11T02:02:46.269Z,2.50
2019-03-11T02:05:17.291Z,2.40
2019-03-11T02:07:48.334Z,2.40
2019-03-11T02:10:19.375Z,2.30
2019-03-11T02:12:50.276Z,2.30
2019-03-11T02:15:21.265Z,2.30
2019-03-11T02:17:52.110Z,2.20
2019-03-11T02:20:23.047Z,2.10
2019-03-11T02:22:53.927Z,2.10
2019-03-11T02:25:24.856Z,2.00
2019-03-11T02:27:56.855Z,1.90
2019-03-11T02:30:27.908Z,1.90
2019-03-11T02:32:58.932Z,1.90
2019-03-11T02:35:30.886Z,1.90
2019-03-11T02:38:01.851Z,1.80
2019-03-11T02:40:32.761Z,1.80
2019-03-11T02:43:03.616Z,1.80
2019-03-11T02:45:34.522Z,1.70
2019-03-11T02:48:05.398Z,1.70
2019-03-11T02:50:36.314Z,1.60
2019-03-11T02:53:07.296Z,1.60
2019-03-11T02:55:38.202Z,1.50
2019-03-11T02:58:09.189Z,1.50
2019-03-11T03:00:40.227Z,1.50
2019-03-11T03:03:32.786Z,1.50
2019-03-11T03:06:09.086Z,1.50
2019-03-11T03:08:40.029Z,1.50
2019-03-11T03:11:11.154Z,1.50
2019-03-11T03:13:42.055Z,1.40
2019-03-11T03:16:12.988Z,1.40
2019-03-11T03:18:43.849Z,1.40
2019-03-11T03:21:14.781Z,1.30
2019-03-11T03:23:45.844Z,1.30
2019-03-11T03:26:16.866Z,1.30
2019-03-11T03:28:47.848Z,1.20
2019-03-11T03:31:18.882Z,1.20
2019-03-11T03:33:49.973Z,1.20
2019-03-11T03:36:20.834Z,1.20
2019-03-11T03:38:51.788Z,1.10
2019-03-11T03:41:22.689Z,1.10
2019-03-11T03:43:53.680Z,1.10
2019-03-11T03:46:25.040Z,1.00
2019-03-11T03:48:56.003Z,1.00
2019-03-11T03:51:26.988Z,1.00
2019-03-11T03:53:57.980Z,0.90
2019-03-11T03:56:29.065Z,1.00
2019-03-11T03:58:59.960Z,0.90
2019-03-11T04:01:30.926Z,0.90
2019-03-11T04:04:01.852Z,0.90
2019-03-11T04:06:33.005Z,0.80
2019-03-11T04:09:04.712Z,0.80
2019-03-11T04:11:37.397Z,0.70
2019-03-11T04:14:08.457Z,0.70
2019-03-11T04:16:39.627Z,0.60
2019-03-11T04:19:10.894Z,0.60
2019-03-11T04:21:42.076Z,0.60
2019-03-11T04:24:13.267Z,0.60
2019-03-11T04:26:44.486Z,0.60
2019-03-11T04:29:15.608Z,0.50
2019-03-11T04:31:47.497Z,0.50
2019-03-11T04:34:18.557Z,0.50
2019-03-11T04:36:49.811Z,0.50
2019-03-11T04:39:20.889Z,0.50
2019-03-11T04:41:52.239Z,0.40
2019-03-11T04:44:23.312Z,0.40
2019-03-11T04:46:55.576Z,0.40
2019-03-11T04:49:26.943Z,0.30
2019-03-11T04:51:58.065Z,0.30
2019-03-11T04:54:29.449Z,0.30
2019-03-11T04:57:01.998Z,0.30
2019-03-11T04:59:33.603Z,0.30
2019-03-11T05:02:05.480Z,0.30
2019-03-11T05:04:36.552Z,0.20
2019-03-11T05:07:07.704Z,0.20
2019-03-11T05:09:38.833Z,0.20
2019-03-11T05:12:09.967Z,0.20
2019-03-11T05:14:40.927Z,0.20
2019-03-11T05:17:12.037Z,0.20
2019-03-11T05:19:43.116Z,0.20
2019-03-11T05:22:15.454Z,0.20
2019-03-11T05:24:46.455Z,0.20
2019-03-11T05:27:17.587Z,0.10
2019-03-11T05:29:48.797Z,0.20
2019-03-11T05:32:19.923Z,0.20
2019-03-11T05:34:51.067Z,0.20
2019-03-11T05:37:22.043Z,0.20
2019-03-11T05:39:53.180Z,0.20
2019-03-11T05:42:24.150Z,0.20
2019-03-11T05:44:55.053Z,0.20
2019-03-11T05:47:26.156Z,0.20
2019-03-11T05:49:57.373Z,0.20
2019-03-11T05:52:28.632Z,0.20
2019-03-11T05:54:59.611Z,0.30
2019-03-11T05:57:30.615Z,0.30
2019-03-11T06:00:01.614Z,0.30
2019-03-11T06:02:36.454Z,0.40
2019-03-11T06:05:07.784Z,0.40
2019-03-11T06:07:38.970Z,0.50
2019-03-11T06:10:10.988Z,0.50
2019-03-11T06:12:43.274Z,0.50
2019-03-11T06:15:14.434Z,0.60
2019-03-11T06:17:45.973Z,0.60
2019-03-11T06:20:32.125Z,0.70
2019-03-11T06:23:03.700Z,0.70
2019-03-11T06:25:35.221Z,0.80
2019-03-11T06:28:06.923Z,0.80
2019-03-11T06:30:38.531Z,0.90
2019-03-11T06:33:09.644Z,1.00
2019-03-11T06:35:41.246Z,1.10
2019-03-11T06:38:12.822Z,1.10
2019-03-11T06:40:45.972Z,1.10
2019-03-11T06:43:17.705Z,1.30
2019-03-11T06:45:49.427Z,1.30
2019-03-11T06:48:21.145Z,1.40
2019-03-11T06:50:53.185Z,1.50
2019-03-11T06:53:24.368Z,1.60
2019-03-11T06:55:55.317Z,1.70
2019-03-11T06:58:27.307Z,1.80
2019-03-11T07:00:58.885Z,1.90
2019-03-11T07:03:29.977Z,2.00
2019-03-11T07:06:01.518Z,2.10
2019-03-11T07:08:33.300Z,2.20
2019-03-11T07:11:04.911Z,2.30
2019-03-11T07:13:36.850Z,2.30
2019-03-11T07:16:09.595Z,2.40
2019-03-11T07:18:41.888Z,2.50
2019-03-11T07:21:14.063Z,2.50
2019-03-11T07:23:46.305Z,2.60
2019-03-11T07:26:17.879Z,2.70
2019-03-11T07:28:49.621Z,2.80
2019-03-11T07:31:21.463Z,2.90
2019-03-11T07:33:53.324Z,3.00
2019-03-11T07:36:25.317Z,3.10
2019-03-11T07:38:58.755Z,3.20
2019-03-11T07:41:30.397Z,3.30
2019-03-11T07:44:01.511Z,3.30
2019-03-11T07:46:33.077Z,3.40
2019-03-11T07:49:04.956Z,3.60
2019-03-11T07:51:36.110Z,3.70
2019-03-11T07:54:07.835Z,3.80
2019-03-11T07:56:39.327Z,3.80
2019-03-11T07:59:10.932Z,3.80
2019-03-11T08:01:42.557Z,3.90
2019-03-11T08:04:14.321Z,4.00
2019-03-11T08:06:46.376Z,4.00
2019-03-11T08:09:20.198Z,4.10
2019-03-11T08:11:51.730Z,4.20
2019-03-11T08:14:23.526Z,4.20
2019-03-11T08:16:55.255Z,4.20
2019-03-11T08:19:27.108Z,4.20
2019-03-11T08:21:58.635Z,4.30
2019-03-11T08:24:30.364Z,4.40
2019-03-11T08:27:02.373Z,4.50
2019-03-11T08:29:34.333Z,4.50
2019-03-11T08:32:06.585Z,4.70
2019-03-11T08:34:38.227Z,4.70
2019-03-11T08:37:10.327Z,4.90
2019-03-11T08:39:42.398Z,4.90
2019-03-11T08:42:13.574Z,5.00
2019-03-11T08:44:46.305Z,5.00
2019-03-11T08:47:17.353Z,5.10
2019-03-11T08:49:48.929Z,5.20
2019-03-11T08:52:21.598Z,5.30
2019-03-11T08:54:53.285Z,5.40
2019-03-11T08:57:24.334Z,5.70
2019-03-11T08:59:55.902Z,5.90
2019-03-11T09:02:27.318Z,6.10
2019-03-11T09:04:58.369Z,6.10
2019-03-11T09:07:29.410Z,6.10
2019-03-11T09:10:01.205Z,6.30
2019-03-11T09:12:32.780Z,6.40
2019-03-11T09:15:04.761Z,6.50
2019-03-11T09:17:36.483Z,6.50
2019-03-11T09:20:08.805Z,6.50
2019-03-11T09:22:40.430Z,6.60
2019-03-11T09:25:13.878Z,6.70
2019-03-11T09:27:45.041Z,6.80
2019-03-11T09:30:18.340Z,7.00
2019-03-11T09:32:49.876Z,6.90
2019-03-11T09:35:21.590Z,6.80
2019-03-11T09:37:54.367Z,6.80
2019-03-11T09:40:26.270Z,6.90
2019-03-11T09:42:57.835Z,7.20
2019-03-11T09:45:29.612Z,7.40
2019-03-11T09:48:10.063Z,7.50
2019-03-11T09:50:41.750Z,7.60
2019-03-11T09:53:13.534Z,7.70
2019-03-11T09:55:45.382Z,7.80
2019-03-11T09:58:16.981Z,7.90
2019-03-11T10:00:48.696Z,8.00
2019-03-11T10:03:20.811Z,8.20
2019-03-11T10:05:53.227Z,8.40
2019-03-11T10:08:25.359Z,8.40
2019-03-11T10:10:57.634Z,8.40
2019-03-11T10:13:29.836Z,8.20
2019-03-11T10:16:01.812Z,8.20
2019-03-11T10:18:35.058Z,8.50
2019-03-11T10:21:07.725Z,8.70
2019-03-11T10:23:39.520Z,8.70
2019-03-11T10:26:11.594Z,8.80
2019-03-11T10:28:43.269Z,8.70
2019-03-11T10:31:15.042Z,8.90
2019-03-11T10:33:46.765Z,9.20
2019-03-11T10:36:18.498Z,9.60
2019-03-11T10:38:50.160Z,10.00
2019-03-11T10:41:21.804Z,10.30
2019-03-11T10:43:53.588Z,10.50
2019-03-11T10:46:24.837Z,10.60
2019-03-11T10:48:56.312Z,10.50
2019-03-11T10:51:28.621Z,10.50
2019-03-11T10:54:00.645Z,10.30
2019-03-11T10:56:32.959Z,10.10
2019-03-11T10:59:05.403Z,10.20
2019-03-11T11:01:37.325Z,10.30
2019-03-11T11:04:08.935Z,10.60
2019-03-11T11:06:41.585Z,10.50
2019-03-11T11:09:28.305Z,10.30
2019-03-11T11:12:00.439Z,10.30
2019-03-11T11:14:32.624Z,10.70
2019-03-11T11:17:04.306Z,11.10
2019-03-11T11:19:37.042Z,11.40
2019-03-11T11:22:08.909Z,11.50
2019-03-11T11:24:40.584Z,11.70
2019-03-11T11:27:12.570Z,12.00
2019-03-11T11:29:44.793Z,12.40
2019-03-11T11:32:18.116Z,12.90
2019-03-11T11:34:49.743Z,12.60
2019-03-11T11:37:22.161Z,11.60
2019-03-11T11:39:54.518Z,11.20
2019-03-11T11:42:26.467Z,11.50
2019-03-11T11:44:58.007Z,11.70
2019-03-11T11:47:29.729Z,11.30
2019-03-11T11:50:02.081Z,11.50
2019-03-11T11:52:34.626Z,11.10
2019-03-11T11:55:06.998Z,10.30
2019-03-11T11:57:38.741Z,10.00
2019-03-11T12:00:14.098Z,10.20
2019-03-11T12:02:46.176Z,10.20
2019-03-11T12:05:18.062Z,10.20
2019-03-11T12:07:49.817Z,10.50
2019-03-11T12:10:22.073Z,11.10
2019-03-11T12:12:53.980Z,11.80
2019-03-11T12:15:26.720Z,12.30
2019-03-11T12:17:58.454Z,12.80
2019-03-11T12:20:30.334Z,13.20
2019-03-11T12:23:02.004Z,13.40
2019-03-11T12:25:33.678Z,13.10
2019-03-11T12:28:05.920Z,13.30
2019-03-11T12:30:37.400Z,13.70
2019-03-11T12:33:08.766Z,13.90
2019-03-11T12:35:41.179Z,13.80
2019-03-11T12:38:13.216Z,13.90
2019-03-11T12:40:44.976Z,13.90
2019-03-11T12:43:16.310Z,13.50
2019-03-11T12:45:47.974Z,12.60
2019-03-11T12:48:19.894Z,12.00
2019-03-11T12:50:51.582Z,11.90
2019-03-11T12:53:23.532Z,12.10
2019-03-11T12:55:55.703Z,12.60
2019-03-11T12:58:27.860Z,13.00
2019-03-11T13:00:59.498Z,13.00
2019-03-11T13:03:31.527Z,12.30
2019-03-11T13:06:03.190Z,11.70
2019-03-11T13:08:35.233Z,11.20
2019-03-11T13:11:06.950Z,11.00
2019-03-11T13:13:38.616Z,11.10
2019-03-11T13:16:10.399Z,11.30
2019-03-11T13:18:46.676Z,11.60
2019-03-11T13:21:22.520Z,11.50
2019-03-11T13:23:54.204Z,11.70
2019-03-11T13:26:25.702Z,12.20
2019-03-11T13:28:57.737Z,12.50
2019-03-11T13:31:29.552Z,12.80
2019-03-11T13:34:01.385Z,13.20
2019-03-11T13:36:32.811Z,13.50
2019-03-11T13:39:06.112Z,13.50
2019-03-11T13:41:38.763Z,13.20
2019-03-11T13:44:10.641Z,12.80
2019-03-11T13:46:42.473Z,12.30
2019-03-11T13:49:14.329Z,12.00
2019-03-11T13:51:45.899Z,11.90
2019-03-11T13:54:17.529Z,11.90
2019-03-11T13:56:49.204Z,12.20
2019-03-11T13:59:20.967Z,12.30
2019-03-11T14:01:52.666Z,12.30
2019-03-11T14:04:23.898Z,12.30
2019-03-11T14:06:54.957Z,11.80
2019-03-11T14:09:26.685Z,11.60
2019-03-11T14:11:58.764Z,11.60
2019-03-11T14:14:31.370Z,11.70
2019-03-11T14:17:06.549Z,12.00
2019-03-11T14:19:38.340Z,11.20
2019-03-11T14:22:09.995Z,11.30
2019-03-11T14:24:41.647Z,11.80
2019-03-11T14:27:13.316Z,12.40
2019-03-11T14:29:45.085Z,12.70
2019-03-11T14:32:17.996Z,12.80
2019-03-11T14:34:51.443Z,12.90
2019-03-11T14:37:23.196Z,13.10
2019-03-11T14:39:54.972Z,13.00
2019-03-11T14:42:27.736Z,13.20
2019-03-11T14:45:00.342Z,13.50
2019-03-11T14:47:32.772Z,13.50
2019-03-11T14:50:04.797Z,13.50
2019-03-11T14:52:36.937Z,13.60
2019-03-11T14:55:09.737Z,14.00
2019-03-11T14:57:41.918Z,14.10
2019-03-11T15:00:18.121Z,14.10
2019-03-11T15:02:49.009Z,14.30
2019-03-11T15:05:21.041Z,14.50
2019-03-11T15:07:52.892Z,14.50
2019-03-11T15:10:24.305Z,14.70
2019-03-11T15:12:55.929Z,14.90
2019-03-11T15:15:27.383Z,14.90
2019-03-11T15:17:59.174Z,14.50
2019-03-11T15:20:31.122Z,14.60
2019-03-11T15:23:10.819Z,14.80
2019-03-11T15:25:36.335Z,15.10
2019-03-11T15:28:08.055Z,15.00
2019-03-11T15:30:39.896Z,14.80
2019-03-11T15:33:11.146Z,14.60
2019-03-11T15:35:42.398Z,14.50
2019-03-11T15:38:13.529Z,14.60
2019-03-11T15:40:45.110Z,14.40
2019-03-11T15:43:16.219Z,14.10
2019-03-11T15:45:47.354Z,13.90
2019-03-11T15:48:18.885Z,13.30
2019-03-11T15:50:50.442Z,12.80
2019-03-11T15:53:21.410Z,11.90
2019-03-11T15:55:53.168Z,11.30
2019-03-11T15:58:24.801Z,11.10
2019-03-11T16:00:56.660Z,10.90
2019-03-11T16:03:39.330Z,10.50
2019-03-11T16:06:30.777Z,10.10
2019-03-11T16:09:02.188Z,9.40
2019-03-11T16:11:35.137Z,8.80
2019-03-11T16:14:06.612Z,8.20
2019-03-11T16:16:38.625Z,7.50
2019-03-11T16:19:11.090Z,6.90
2019-03-11T16:21:42.935Z,6.40
2019-03-11T16:24:14.191Z,6.10
2019-03-11T16:26:45.533Z,5.80
2019-03-11T16:29:16.707Z,5.60
2019-03-11T16:31:48.510Z,5.30
2019-03-11T16:34:20.347Z,5.20
2019-03-11T16:36:52.236Z,5.00
2019-03-11T16:39:23.969Z,4.80
2019-03-11T16:41:55.711Z,4.70
2019-03-11T16:44:27.377Z,4.60
2019-03-11T16:46:59.099Z,4.50
2019-03-11T16:49:30.717Z,4.30
2019-03-11T16:52:02.618Z,4.30
2019-03-11T16:54:33.679Z,4.10
2019-03-11T16:57:04.870Z,4.00
2019-03-11T16:59:36.356Z,4.00
2019-03-11T17:02:07.971Z,3.90
2019-03-11T17:04:47.384Z,3.80
2019-03-11T17:07:19.120Z,3.70
2019-03-11T17:09:51.477Z,3.60
2019-03-11T17:12:23.318Z,3.60
2019-03-11T17:14:58.940Z,3.50
2019-03-11T17:17:33.385Z,3.50
2019-03-11T17:20:10.015Z,3.40
2019-03-11T17:22:41.496Z,3.40
2019-03-11T17:25:13.233Z,3.30
2019-03-11T17:27:44.672Z,3.20
2019-03-11T17:30:16.897Z,3.20
2019-03-11T17:32:48.486Z,3.10
2019-03-11T17:35:19.719Z,3.10
2019-03-11T17:37:51.192Z,3.00
2019-03-11T17:40:22.999Z,3.00
2019-03-11T17:42:54.763Z,2.90
2019-03-11T17:45:26.342Z,2.90
2019-03-11T17:47:57.801Z,2.90
2019-03-11T17:50:29.130Z,2.80
2019-03-11T17:53:00.546Z,2.80
2019-03-11T17:55:31.927Z,2.80
2019-03-11T18:00:56.005Z,2.70
2019-03-11T18:03:27.548Z,2.60
2019-03-11T18:05:58.851Z,2.60
2019-03-11T18:08:30.173Z,2.60
2019-03-11T18:11:01.479Z,2.50
2019-03-11T18:13:32.991Z,2.50
2019-03-11T18:16:04.732Z,2.50
2019-03-11T18:18:36.248Z,2.40
2019-03-11T18:21:08.102Z,2.40
2019-03-11T18:23:39.507Z,2.40
2019-03-11T18:26:13.596Z,2.30
2019-03-11T18:28:45.358Z,2.30
2019-03-11T18:31:16.743Z,2.20
2019-03-11T18:33:48.564Z,2.20
2019-03-11T18:36:20.347Z,2.20
2019-03-11T18:38:52.081Z,2.20
2019-03-11T18:41:23.796Z,2.10
2019-03-11T18:43:57.414Z,2.10
2019-03-11T18:46:29.160Z,2.00
2019-03-11T18:49:00.501Z,2.00
2019-03-11T18:51:32.206Z,2.00
2019-03-11T18:54:05.200Z,1.90
2019-03-11T18:56:36.889Z,1.90
2019-03-11T18:59:08.721Z,1.80
2019-03-11T19:01:41.613Z,1.80
2019-03-11T19:04:13.048Z,1.80
2019-03-11T19:06:44.438Z,1.80
2019-03-11T19:09:16.299Z,1.80
2019-03-11T19:11:47.591Z,1.80
2019-03-11T19:14:19.402Z,1.70
2019-03-11T19:16:50.566Z,1.70
2019-03-11T19:19:24.369Z,1.70
2019-03-11T19:21:59.906Z,1.70
2019-03-11T19:24:32.121Z,1.60
2019-03-11T19:27:04.614Z,1.60
2019-03-11T19:29:36.054Z,1.60
2019-03-11T19:32:07.928Z,1.60
2019-03-11T19:34:39.303Z,1.60
2019-03-11T19:37:11.284Z,1.50
2019-03-11T19:39:42.634Z,1.50
2019-03-11T19:42:13.823Z,1.50
2019-03-11T19:44:47.303Z,1.50
2019-03-11T19:47:17.687Z,1.50
2019-03-11T19:49:49.140Z,1.50
2019-03-11T19:52:21.001Z,1.50
2019-03-11T19:54:52.741Z,1.40
2019-03-11T19:57:23.920Z,1.40
2019-03-11T19:59:54.989Z,1.40
2019-03-11T20:02:26.281Z,1.40
2019-03-11T20:04:57.707Z,1.30
2019-03-11T20:07:30.464Z,1.30
2019-03-11T20:10:02.044Z,1.30
2019-03-11T20:12:34.117Z,1.30
2019-03-11T20:15:05.835Z,1.30
2019-03-11T20:17:38.799Z,1.30
2019-03-11T20:20:11.623Z,1.40
2019-03-11T20:22:42.893Z,1.30
2019-03-11T20:25:19.606Z,1.40
2019-03-11T20:27:51.285Z,1.40
2019-03-11T20:30:24.335Z,1.40
2019-03-11T20:32:55.638Z,1.40
2019-03-11T20:35:27.204Z,1.40
2019-03-11T20:37:58.662Z,1.40
2019-03-11T20:40:29.860Z,1.50
2019-03-11T20:43:01.268Z,1.50
2019-03-11T20:45:32.492Z,1.60
2019-03-11T20:48:04.538Z,1.60
2019-03-11T20:50:41.874Z,1.60
2019-03-11T20:53:08.425Z,1.60
2019-03-11T20:55:39.676Z,1.70
2019-03-11T20:58:11.030Z,1.70
2019-03-11T21:00:43.594Z,1.70
2019-03-11T21:03:15.144Z,1.70
2019-03-11T21:05:46.618Z,1.70
2019-03-11T21:08:17.785Z,1.70
2019-03-11T21:10:48.924Z,1.70
2019-03-11T21:13:20.579Z,1.70
2019-03-11T21:15:52.127Z,1.70
2019-03-11T21:18:23.152Z,1.70
2019-03-11T21:21:03.962Z,1.70
2019-03-11T21:23:26.726Z,1.70
2019-03-11T21:25:57.804Z,1.70
2019-03-11T21:28:29.036Z,1.70
2019-03-11T21:31:00.297Z,1.50
2019-03-11T21:33:31.352Z,1.20
2019-03-11T21:36:02.697Z,0.90
2019-03-11T21:38:34.187Z,0.80
2019-03-11T21:41:16.119Z,0.70
2019-03-11T21:43:47.350Z,0.70
2019-03-11T21:46:18.447Z,0.70
2019-03-11T21:48:49.470Z,0.70
2019-03-11T21:51:20.658Z,0.70
2019-03-11T21:53:51.779Z,0.70
2019-03-11T21:56:23.055Z,0.70
2019-03-11T21:58:54.283Z,0.70
2019-03-11T22:01:25.609Z,0.70
2019-03-11T22:03:57.359Z,0.60
2019-03-11T22:06:30.826Z,0.60
2019-03-11T22:09:04.513Z,0.60
2019-03-11T22:11:37.911Z,0.60
2019-03-11T22:14:09.338Z,0.60
2019-03-11T22:16:40.371Z,0.60
2019-03-11T22:19:11.456Z,0.60
2019-03-11T22:21:42.431Z,0.70
2019-03-11T22:24:13.394Z,0.70
2019-03-11T22:26:44.475Z,0.70
2019-03-11T22:29:15.537Z,0.70
2019-03-11T22:31:46.647Z,0.70
2019-03-11T22:34:17.867Z,0.70
2019-03-11T22:36:48.809Z,0.80
2019-03-11T22:39:19.755Z,0.80
2019-03-11T22:41:52.800Z,0.80
2019-03-11T22:44:23.331Z,0.80
2019-03-11T22:46:54.531Z,0.80
2019-03-11T22:49:25.447Z,0.80
2019-03-11T22:51:56.809Z,0.80
2019-03-11T22:54:28.076Z,0.80
2019-03-11T22:56:59.122Z,0.80
2019-03-11T22:59:30.092Z,0.70
2019-03-11T23:02:01.151Z,0.70
2019-03-11T23:04:32.264Z,0.70
2019-03-11T23:07:03.336Z,0.70
2019-03-11T23:09:34.339Z,0.70
2019-03-11T23:12:05.493Z,0.60
2019-03-11T23:14:36.573Z,0.60
2019-03-11T23:17:07.658Z,0.60
2019-03-11T23:19:38.635Z,0.60
2019-03-11T23:22:09.788Z,0.50
2019-03-11T23:24:40.922Z,0.50
2019-03-11T23:27:11.968Z,0.50
2019-03-11T23:29:42.824Z,0.50
2019-03-11T23:32:14.036Z,0.40
2019-03-11T23:34:45.104Z,0.40
2019-03-11T23:37:16.060Z,0.30
2019-03-11T23:39:46.948Z,0.30
2019-03-11T23:42:18.054Z,0.20
2019-03-11T23:44:48.978Z,0.20
2019-03-11T23:47:19.914Z,0.20
2019-03-11T23:49:50.788Z,0.10
2019-03-11T23:52:21.779Z,0.10
2019-03-11T23:54:52.627Z,0.10
2019-03-11T23:57:24.804Z,0.00
2019-03-11T23:59:55.866Z,0.00
